Time;durP1;ratioP1;P1;durP2;ratioP2;P2;SDS_P1;SDS_P2;PMS_P1;PMS_P2;Temp;Humidity;BMP_temperature;BMP_pressure;BME280_temperature;BME280_humidity;BME280_pressure;Samples;Min_cycle;Max_cycle;Signal;HPM_P1;HPM_P2
2020/12/27 00:02:21;;;;;;;11.23;10.83;;;5.60;99.90;;;;;;5051529;28;20938;-65
2020/12/27 00:04:48;;;;;;;10.77;10.30;;;5.70;99.90;;;;;;5051428;28;20448;-64
2020/12/27 00:07:15;;;;;;;11.37;11.07;;;5.60;99.90;;;;;;5051354;28;20490;-64
2020/12/27 00:09:43;;;;;;;11.13;10.83;;;5.70;99.90;;;;;;5051351;28;20454;-65
2020/12/27 00:12:11;;;;;;;10.40;10.10;;;5.60;99.90;;;;;;5051310;28;20494;-64
2020/12/27 00:14:37;;;;;;;10.50;10.10;;;5.60;99.90;;;;;;5051481;28;20809;-64
2020/12/27 00:17:04;;;;;;;10.37;10.07;;;5.50;99.90;;;;;;5051332;28;20480;-65
2020/12/27 00:19:31;;;;;;;10.77;10.47;;;5.50;99.90;;;;;;5051529;28;20795;-64
2020/12/27 00:21:58;;;;;;;10.60;10.30;;;5.50;99.90;;;;;;5051345;28;20447;-65
2020/12/27 00:24:24;;;;;;;10.63;10.30;;;5.50;99.90;;;;;;5051396;28;20440;-64
2020/12/27 00:26:50;;;;;;;10.60;10.30;;;5.50;99.90;;;;;;5051534;28;20451;-64
2020/12/27 00:29:17;;;;;;;10.30;10.03;;;5.50;99.90;;;;;;5051445;28;20474;-64
2020/12/27 00:31:43;;;;;;;10.30;10.00;;;5.40;99.90;;;;;;5051181;28;20440;-64
2020/12/27 00:34:10;;;;;;;10.50;10.10;;;5.50;99.90;;;;;;5051189;28;20467;-65
2020/12/27 00:36:36;;;;;;;10.60;10.30;;;5.40;99.90;;;;;;5051162;28;20476;-64
2020/12/27 00:39:06;;;;;;;10.60;10.30;;;5.40;99.90;;;;;;5051063;28;20828;-64
2020/12/27 00:41:33;;;;;;;10.70;10.40;;;5.30;99.90;;;;;;5051014;28;20444;-64
2020/12/27 00:44:00;;;;;;;10.00;9.80;;;5.40;99.90;;;;;;5051132;28;20809;-64
2020/12/27 00:46:26;;;;;;;10.50;10.20;;;5.30;99.90;;;;;;5051143;28;20444;-64
2020/12/27 00:48:53;;;;;;;10.57;10.27;;;5.30;99.90;;;;;;5051102;28;20812;-64
2020/12/27 00:51:23;;;;;;;10.10;9.90;;;5.30;99.90;;;;;;5050831;28;20444;-65
2020/12/27 00:53:49;;;;;;;10.03;9.73;;;5.30;99.90;;;;;;5051165;28;20506;-65
2020/12/27 00:56:16;;;;;;;10.80;10.40;;;5.30;99.90;;;;;;5051028;28;20480;-64
2020/12/27 00:58:43;;;;;;;10.73;10.43;;;5.30;99.90;;;;;;5050757;28;20479;-64
2020/12/27 01:01:10;;;;;;;10.00;9.70;;;5.30;99.90;;;;;;5050679;28;20791;-65
2020/12/27 01:03:36;;;;;;;10.00;9.70;;;5.20;99.90;;;;;;5052214;28;20444;-64
2020/12/27 01:06:03;;;;;;;9.80;9.50;;;5.20;99.90;;;;;;5054549;28;20440;-64
2020/12/27 01:08:30;;;;;;;9.70;9.50;;;5.20;99.90;;;;;;5054494;28;20812;-64
2020/12/27 01:10:56;;;;;;;10.10;9.80;;;5.20;99.90;;;;;;5054225;28;20530;-64
2020/12/27 01:13:23;;;;;;;9.67;9.37;;;5.20;99.90;;;;;;5054377;28;20502;-64
2020/12/27 01:15:49;;;;;;;10.30;10.00;;;5.20;99.90;;;;;;5054460;28;20498;-65
2020/12/27 01:18:15;;;;;;;10.13;9.77;;;5.30;99.90;;;;;;5054278;28;20521;-65
2020/12/27 01:20:42;;;;;;;9.60;9.40;;;5.20;99.90;;;;;;5054130;28;20449;-64
2020/12/27 01:23:08;;;;;;;9.87;9.67;;;5.20;99.90;;;;;;5054298;28;20452;-64
2020/12/27 01:25:34;;;;;;;9.53;9.33;;;5.20;99.90;;;;;;5054258;28;20440;-64
2020/12/27 01:28:00;;;;;;;9.53;9.33;;;5.20;99.90;;;;;;5053893;28;20460;-64
2020/12/27 01:30:28;;;;;;;9.57;9.27;;;5.20;99.90;;;;;;5053966;28;20440;-64
2020/12/27 01:32:54;;;;;;;10.20;9.90;;;5.20;99.90;;;;;;5054030;28;20444;-65
2020/12/27 01:35:20;;;;;;;9.53;9.33;;;5.20;99.90;;;;;;5054066;28;20451;-63
2020/12/27 01:37:46;;;;;;;9.50;9.30;;;5.20;99.90;;;;;;5053953;28;20484;-64
2020/12/27 01:40:13;;;;;;;10.07;9.83;;;5.20;99.90;;;;;;5053637;28;20477;-64
2020/12/27 01:42:39;;;;;;;10.10;9.80;;;5.10;99.90;;;;;;5054140;28;20447;-64
2020/12/27 01:45:06;;;;;;;9.90;9.60;;;5.10;99.90;;;;;;5053876;28;20441;-64
2020/12/27 01:47:35;;;;;;;10.30;10.00;;;5.10;99.90;;;;;;5053711;28;20841;-64
2020/12/27 01:50:02;;;;;;;9.70;9.50;;;5.00;99.90;;;;;;5053762;28;20448;-64
2020/12/27 01:52:28;;;;;;;9.50;9.30;;;5.00;99.90;;;;;;5053643;28;20444;-64
2020/12/27 01:54:54;;;;;;;9.60;9.30;;;5.10;99.90;;;;;;5053678;28;20444;-64
2020/12/27 01:57:27;;;;;;;9.70;9.40;;;5.00;99.90;;;;;;5053276;28;20488;-65
2020/12/27 01:59:53;;;;;;;9.67;9.47;;;5.00;99.90;;;;;;5053354;28;20443;-64
2020/12/27 02:02:20;;;;;;;9.60;9.30;;;5.10;99.90;;;;;;5053493;28;20444;-64
2020/12/27 02:04:47;;;;;;;9.73;9.40;;;5.10;99.90;;;;;;5053381;28;20938;-65
2020/12/27 02:07:13;;;;;;;9.53;9.13;;;5.10;99.90;;;;;;5053262;28;20444;-65
2020/12/27 02:09:40;;;;;;;10.13;9.83;;;5.10;99.90;;;;;;5053352;28;20450;-64
2020/12/27 02:12:09;;;;;;;10.10;9.80;;;5.20;99.90;;;;;;5053385;28;20828;-64
2020/12/27 02:14:36;;;;;;;9.87;9.57;;;5.20;99.90;;;;;;5053299;28;20471;-65
2020/12/27 02:17:03;;;;;;;9.90;9.60;;;5.20;99.90;;;;;;5053363;28;20484;-64
2020/12/27 02:19:29;;;;;;;10.03;9.63;;;5.20;99.90;;;;;;5053096;28;20468;-64
2020/12/27 02:21:57;;;;;;;9.87;9.47;;;5.30;99.90;;;;;;5053036;28;20517;-64
2020/12/27 02:24:24;;;;;;;9.77;9.57;;;5.30;99.90;;;;;;5053208;28;20497;-65
2020/12/27 02:26:58;;;;;;;10.23;9.93;;;5.30;99.90;;;;;;5053011;28;20436;-63
2020/12/27 02:29:25;;;;;;;10.73;10.00;;;5.30;99.90;;;;;;5052928;28;20961;-64
2020/12/27 02:31:52;;;;;;;10.30;9.90;;;5.30;99.90;;;;;;5052766;28;20440;-65
2020/12/27 02:34:19;;;;;;;9.83;9.60;;;5.30;99.90;;;;;;5052916;28;20460;-64
2020/12/27 02:36:45;;;;;;;10.00;9.73;;;5.40;99.90;;;;;;5052966;28;20487;-65
2020/12/27 02:39:12;;;;;;;10.00;9.80;;;5.40;99.90;;;;;;5052773;28;20984;-65
2020/12/27 02:41:40;;;;;;;10.47;10.17;;;5.40;99.90;;;;;;5052470;28;20444;-64
2020/12/27 02:44:07;;;;;;;9.90;9.60;;;5.40;99.90;;;;;;5052795;28;20452;-64
2020/12/27 02:46:34;;;;;;;10.30;9.90;;;5.40;99.90;;;;;;5052628;28;20448;-64
2020/12/27 02:49:01;;;;;;;10.30;10.00;;;5.40;99.90;;;;;;5052621;28;20486;-64
2020/12/27 02:51:28;;;;;;;10.30;10.00;;;5.40;99.90;;;;;;5052429;28;20856;-64
2020/12/27 02:53:55;;;;;;;9.90;9.60;;;5.40;99.90;;;;;;5052429;28;20956;-65
2020/12/27 02:56:23;;;;;;;10.40;10.10;;;5.50;99.90;;;;;;5052478;28;20876;-65
2020/12/27 02:58:51;;;;;;;10.40;10.10;;;5.50;99.90;;;;;;5052733;28;20479;-64
2020/12/27 03:01:18;;;;;;;10.23;9.93;;;5.50;99.90;;;;;;5052090;28;20433;-65
2020/12/27 03:03:44;;;;;;;10.17;9.97;;;5.50;99.90;;;;;;5052417;28;20440;-63
2020/12/27 03:06:12;;;;;;;10.57;10.17;;;5.50;99.90;;;;;;5052295;28;20494;-63
2020/12/27 03:08:39;;;;;;;10.43;10.13;;;5.50;99.90;;;;;;5052177;28;20456;-65
2020/12/27 03:11:05;;;;;;;10.70;10.40;;;5.50;99.90;;;;;;5052152;28;20440;-62
2020/12/27 03:13:32;;;;;;;10.40;10.10;;;5.50;99.90;;;;;;5052190;28;20439;-63
2020/12/27 03:16:00;;;;;;;10.30;10.00;;;5.60;99.90;;;;;;5052270;28;20779;-65
2020/12/27 03:18:27;;;;;;;9.73;9.53;;;5.60;99.90;;;;;;5052072;28;21000;-63
2020/12/27 03:20:53;;;;;;;10.43;10.13;;;5.60;99.90;;;;;;5051909;28;20869;-64
2020/12/27 03:23:19;;;;;;;10.70;10.40;;;5.60;99.90;;;;;;5051947;28;20455;-63
2020/12/27 03:25:46;;;;;;;10.37;10.07;;;5.60;99.90;;;;;;5051695;28;20813;-63
2020/12/27 03:28:12;;;;;;;9.90;9.70;;;5.50;99.90;;;;;;5051782;28;20460;-63
2020/12/27 03:30:38;;;;;;;10.00;9.80;;;5.60;99.90;;;;;;5051767;28;20509;-63
2020/12/27 03:33:06;;;;;;;10.00;9.80;;;5.60;99.90;;;;;;5051968;28;20441;-64
2020/12/27 03:35:32;;;;;;;9.60;9.40;;;5.60;99.90;;;;;;5051735;28;20440;-64
2020/12/27 03:37:58;;;;;;;10.30;10.10;;;5.60;99.90;;;;;;5051776;28;20488;-63
2020/12/27 03:40:25;;;;;;;10.07;9.87;;;5.60;99.90;;;;;;5051472;28;20444;-64
2020/12/27 03:42:51;;;;;;;10.43;10.17;;;5.60;99.90;;;;;;5051599;28;20446;-64
2020/12/27 03:45:18;;;;;;;10.20;9.90;;;5.60;99.90;;;;;;5051813;28;20451;-63
2020/12/27 03:47:44;;;;;;;10.20;9.90;;;5.60;99.90;;;;;;5051635;28;20513;-64
2020/12/27 03:50:11;;;;;;;10.00;9.70;;;5.60;99.90;;;;;;5051418;28;20805;-63
2020/12/27 03:52:37;;;;;;;10.57;10.27;;;5.60;99.90;;;;;;5051557;28;20443;-64
2020/12/27 03:55:03;;;;;;;10.30;10.00;;;5.60;99.90;;;;;;5051526;28;20447;-64
2020/12/27 03:57:30;;;;;;;10.60;10.30;;;5.60;99.90;;;;;;5051205;28;20484;-63
2020/12/27 03:59:56;;;;;;;10.53;10.23;;;5.60;99.90;;;;;;5051626;28;20876;-63
2020/12/27 04:02:22;;;;;;;9.97;9.77;;;5.60;99.90;;;;;;5051412;28;20937;-63
2020/12/27 04:04:48;;;;;;;10.03;9.80;;;5.60;99.90;;;;;;5051597;28;20447;-63
2020/12/27 04:07:16;;;;;;;9.60;9.40;;;5.60;99.90;;;;;;5051502;28;20470;-63
2020/12/27 04:09:42;;;;;;;9.60;9.30;;;5.60;99.90;;;;;;5051234;28;20440;-65
2020/12/27 04:12:13;;;;;;;9.83;9.53;;;5.60;99.90;;;;;;5051473;28;20440;-64
2020/12/27 04:14:40;;;;;;;10.30;10.00;;;5.60;99.90;;;;;;5051470;28;20479;-64
2020/12/27 04:17:06;;;;;;;9.60;9.40;;;5.60;99.90;;;;;;5051246;28;20479;-63
2020/12/27 04:19:32;;;;;;;9.60;9.40;;;5.70;99.90;;;;;;5051301;28;20445;-64
2020/12/27 04:21:59;;;;;;;9.10;8.90;;;5.70;99.90;;;;;;5051203;28;20444;-63
2020/12/27 04:24:26;;;;;;;9.40;9.20;;;5.70;99.90;;;;;;5051276;28;20444;-63
2020/12/27 04:26:52;;;;;;;9.33;9.13;;;5.70;99.90;;;;;;5051273;28;20947;-64
2020/12/27 04:29:18;;;;;;;9.67;9.47;;;5.70;99.90;;;;;;5051187;28;20845;-64
2020/12/27 04:31:44;;;;;;;9.27;9.07;;;5.70;99.90;;;;;;5051120;28;20444;-64
2020/12/27 04:34:11;;;;;;;9.60;9.30;;;5.70;99.90;;;;;;5051197;28;20930;-64
2020/12/27 04:36:37;;;;;;;10.00;9.70;;;5.70;99.90;;;;;;5051087;28;20483;-63
2020/12/27 04:39:03;;;;;;;9.53;9.33;;;5.70;99.90;;;;;;5053299;28;20996;-63
2020/12/27 04:41:31;;;;;;;9.60;9.40;;;5.70;99.90;;;;;;5054852;28;20448;-63
2020/12/27 04:43:57;;;;;;;9.33;9.13;;;5.70;99.90;;;;;;5054975;28;20462;-63
2020/12/27 04:46:24;;;;;;;9.37;9.17;;;5.70;99.90;;;;;;5055015;28;20991;-64
2020/12/27 04:48:53;;;;;;;9.83;9.53;;;5.70;99.90;;;;;;5054862;28;20836;-63
2020/12/27 04:51:20;;;;;;;9.07;8.87;;;5.70;99.90;;;;;;5054713;28;20502;-64
2020/12/27 04:53:46;;;;;;;9.77;9.47;;;5.70;99.90;;;;;;5054857;28;20444;-64
2020/12/27 04:56:17;;;;;;;10.03;9.73;;;5.70;99.90;;;;;;5054769;28;20444;-63
2020/12/27 04:58:44;;;;;;;9.40;9.10;;;5.70;99.90;;;;;;5054731;28;20837;-65
2020/12/27 05:01:11;;;;;;;9.60;9.40;;;5.70;99.90;;;;;;5054547;28;20444;-63
2020/12/27 05:03:37;;;;;;;9.13;8.93;;;5.70;99.90;;;;;;5054540;28;20447;-64
2020/12/27 05:06:03;;;;;;;9.70;9.50;;;5.70;99.90;;;;;;5054808;28;20444;-65
2020/12/27 05:08:29;;;;;;;9.50;9.30;;;5.70;99.90;;;;;;5054403;28;20526;-64
2020/12/27 05:10:56;;;;;;;9.47;9.20;;;5.60;99.90;;;;;;5054197;28;20448;-64
2020/12/27 05:13:22;;;;;;;9.83;9.63;;;5.60;99.90;;;;;;5054512;28;20962;-64
2020/12/27 05:15:49;;;;;;;9.40;9.20;;;5.60;99.90;;;;;;5054040;28;20452;-63
2020/12/27 05:18:15;;;;;;;9.20;9.00;;;5.60;99.90;;;;;;5054192;28;21315;-65
2020/12/27 05:20:41;;;;;;;9.10;8.90;;;5.60;99.90;;;;;;5054192;28;20474;-64
2020/12/27 05:23:09;;;;;;;9.50;9.30;;;5.60;99.90;;;;;;5054168;28;20816;-65
2020/12/27 05:25:38;;;;;;;9.80;9.60;;;5.60;99.90;;;;;;5054233;28;20985;-64
2020/12/27 05:28:06;;;;;;;9.60;9.30;;;5.60;99.90;;;;;;5053778;28;20610;-65
2020/12/27 05:30:33;;;;;;;9.30;9.10;;;5.60;99.90;;;;;;5053692;28;20440;-65
2020/12/27 05:33:01;;;;;;;9.93;9.73;;;5.60;99.90;;;;;;5054153;28;20483;-65
2020/12/27 05:35:27;;;;;;;9.10;8.80;;;5.60;99.90;;;;;;5054119;28;20444;-64
2020/12/27 05:37:54;;;;;;;9.77;9.57;;;5.50;99.90;;;;;;5053888;28;20556;-64
2020/12/27 05:40:21;;;;;;;9.07;8.87;;;5.50;99.90;;;;;;5053923;28;20448;-66
2020/12/27 05:42:48;;;;;;;9.50;9.30;;;5.50;99.90;;;;;;5053822;28;20444;-65
2020/12/27 05:45:15;;;;;;;9.67;9.47;;;5.50;99.90;;;;;;5053964;28;20527;-65
2020/12/27 05:47:42;;;;;;;9.57;9.37;;;5.40;99.90;;;;;;5053591;28;20467;-64
2020/12/27 05:50:12;;;;;;;9.10;8.90;;;5.50;99.90;;;;;;5053192;28;20455;-65
2020/12/27 05:52:45;;;;;;;9.87;9.47;;;5.50;99.90;;;;;;5053764;28;20440;-66
2020/12/27 05:55:18;;;;;;;9.40;9.20;;;5.50;99.90;;;;;;5053717;28;20998;-65
2020/12/27 05:57:49;;;;;;;9.90;9.60;;;5.50;99.90;;;;;;5053372;28;20484;-65
2020/12/27 06:00:18;;;;;;;9.60;9.40;;;5.60;99.90;;;;;;5053337;28;20813;-65
2020/12/27 06:02:44;;;;;;;9.10;8.80;;;5.60;99.90;;;;;;5053520;28;20444;-64
2020/12/27 06:05:13;;;;;;;10.10;9.80;;;5.60;99.90;;;;;;5053534;28;20447;-64
2020/12/27 06:07:42;;;;;;;9.40;9.20;;;5.60;99.90;;;;;;5053241;28;21047;-65
2020/12/27 06:10:14;;;;;;;9.60;9.40;;;5.60;99.90;;;;;;5053206;28;20519;-65
2020/12/27 06:13:24;;;;;;;9.00;8.80;;;5.60;99.90;;;;;;5053401;28;20440;-65
2020/12/27 06:15:56;;;;;;;10.00;9.70;;;5.60;99.90;;;;;;5053418;28;20448;-65
2020/12/27 06:18:26;;;;;;;9.43;9.23;;;5.60;99.90;;;;;;5053130;28;20488;-64
2020/12/27 06:21:08;;;;;;;9.40;9.20;;;5.60;99.90;;;;;;5053045;28;20447;-63
2020/12/27 06:23:34;;;;;;;9.30;9.10;;;5.60;99.90;;;;;;5053044;28;20498;-66
2020/12/27 06:26:01;;;;;;;9.50;9.30;;;5.60;99.90;;;;;;5053179;28;20505;-65
2020/12/27 06:28:29;;;;;;;9.40;9.10;;;5.70;99.90;;;;;;5053029;28;20476;-66
2020/12/27 06:30:57;;;;;;;9.40;9.20;;;5.70;99.90;;;;;;5052785;28;21363;-65
2020/12/27 06:33:27;;;;;;;9.50;9.30;;;5.70;99.90;;;;;;5052981;28;20451;-64
2020/12/27 06:35:55;;;;;;;9.30;9.10;;;5.70;99.90;;;;;;5052644;28;20444;-66
2020/12/27 06:38:23;;;;;;;9.20;9.00;;;5.70;99.90;;;;;;5052678;28;20480;-66
2020/12/27 06:40:55;;;;;;;9.30;9.00;;;5.80;99.90;;;;;;5052509;28;20483;-66
2020/12/27 06:43:23;;;;;;;9.17;8.97;;;5.80;99.90;;;;;;5052945;28;20444;-64
2020/12/27 06:45:51;;;;;;;9.50;9.30;;;5.80;99.90;;;;;;5052653;28;20444;-66
2020/12/27 06:48:33;;;;;;;9.20;9.00;;;5.80;99.90;;;;;;5052534;28;20518;-64
2020/12/27 06:51:01;;;;;;;9.27;9.07;;;5.80;99.90;;;;;;5052239;28;20440;-65
2020/12/27 06:53:41;;;;;;;9.50;9.30;;;5.90;99.90;;;;;;5052595;28;20444;-64
2020/12/27 06:56:10;;;;;;;9.40;9.20;;;5.90;99.90;;;;;;5052568;28;20937;-64
2020/12/27 06:58:37;;;;;;;9.73;9.50;;;5.90;99.90;;;;;;5052142;28;20488;-65
2020/12/27 07:01:20;;;;;;;9.50;9.30;;;5.90;99.90;;;;;;5051609;28;20511;-64
2020/12/27 07:03:47;;;;;;;9.20;9.00;;;5.90;99.90;;;;;;5052409;28;20483;-66
2020/12/27 07:06:24;;;;;;;9.77;9.57;;;5.90;99.90;;;;;;5052071;28;20531;-64
2020/12/27 07:08:56;;;;;;;9.90;9.60;;;5.90;99.90;;;;;;5052236;28;20464;-66
2020/12/27 07:11:31;;;;;;;9.77;9.47;;;5.90;99.90;;;;;;5051964;28;20483;-66
2020/12/27 07:13:59;;;;;;;9.20;9.00;;;5.90;99.90;;;;;;5052109;28;20904;-64
2020/12/27 07:16:42;;;;;;;10.53;10.23;;;5.90;99.90;;;;;;5051905;28;20440;-65
2020/12/27 07:19:11;;;;;;;9.20;9.00;;;5.90;99.90;;;;;;5051664;28;20495;-64
2020/12/27 07:21:39;;;;;;;9.20;9.00;;;5.90;99.90;;;;;;5051742;28;20938;-64
2020/12/27 07:24:19;;;;;;;9.73;9.53;;;5.90;99.90;;;;;;5051994;28;20440;-64
2020/12/27 07:26:47;;;;;;;8.93;8.73;;;5.90;99.90;;;;;;5052015;28;20439;-65
2020/12/27 07:29:16;;;;;;;9.40;9.10;;;5.90;99.90;;;;;;5051851;28;20467;-63
2020/12/27 07:31:43;;;;;;;9.27;9.07;;;5.90;99.90;;;;;;5051590;28;20450;-65
2020/12/27 07:34:13;;;;;;;9.07;8.87;;;6.00;99.90;;;;;;5051924;28;20506;-65
2020/12/27 07:36:40;;;;;;;9.60;9.40;;;6.00;99.90;;;;;;5051770;28;20529;-64
2020/12/27 07:39:08;;;;;;;8.90;8.70;;;5.90;99.90;;;;;;5051800;28;20590;-64
2020/12/27 07:41:37;;;;;;;8.80;8.60;;;6.00;99.90;;;;;;5051566;28;20466;-64
2020/12/27 07:44:09;;;;;;;9.00;8.80;;;6.00;99.90;;;;;;5051735;28;20444;-66
2020/12/27 07:46:35;;;;;;;9.03;8.83;;;6.00;99.90;;;;;;5051769;28;20580;-66
2020/12/27 07:49:02;;;;;;;8.50;8.30;;;6.00;99.90;;;;;;5051570;28;21026;-66
2020/12/27 07:51:28;;;;;;;8.97;8.67;;;6.00;99.90;;;;;;5051397;28;20444;-64
2020/12/27 07:53:56;;;;;;;9.07;8.77;;;6.00;99.90;;;;;;5051573;28;20448;-64
2020/12/27 07:56:24;;;;;;;8.00;7.90;;;6.00;99.90;;;;;;5051597;28;20876;-64
2020/12/27 07:58:51;;;;;;;9.00;8.80;;;6.00;99.90;;;;;;5051257;28;20822;-64
2020/12/27 08:01:19;;;;;;;8.90;8.70;;;6.00;99.90;;;;;;5051317;28;20448;-64
2020/12/27 08:03:53;;;;;;;8.93;8.73;;;6.00;99.90;;;;;;5051362;28;20439;-64
2020/12/27 08:06:20;;;;;;;8.87;8.67;;;6.10;99.90;;;;;;5051501;28;20448;-65
2020/12/27 08:08:47;;;;;;;9.00;8.80;;;6.10;99.90;;;;;;5051229;28;20456;-66
2020/12/27 08:11:24;;;;;;;8.40;8.20;;;6.20;99.90;;;;;;5051065;28;20860;-64
2020/12/27 08:13:56;;;;;;;8.50;8.30;;;6.20;99.90;;;;;;5054766;28;20448;-66
2020/12/27 08:16:23;;;;;;;9.00;8.80;;;6.20;99.90;;;;;;5055525;28;20505;-65
2020/12/27 08:19:01;;;;;;;8.87;8.67;;;6.20;99.90;;;;;;5055325;28;20484;-65
2020/12/27 08:21:28;;;;;;;8.70;8.50;;;6.20;99.90;;;;;;5055348;28;20835;-65
2020/12/27 08:24:01;;;;;;;9.60;9.40;;;6.20;99.90;;;;;;5055255;28;21119;-64
2020/12/27 08:26:30;;;;;;;9.40;9.20;;;6.30;99.90;;;;;;5055337;28;20509;-65
2020/12/27 08:29:13;;;;;;;9.47;9.27;;;6.30;99.90;;;;;;5054915;28;20480;-66
2020/12/27 08:31:40;;;;;;;9.20;9.00;;;6.30;99.90;;;;;;5054991;28;20498;-65
2020/12/27 08:34:07;;;;;;;9.20;9.00;;;6.30;99.90;;;;;;5055160;28;20812;-64
2020/12/27 08:36:35;;;;;;;9.33;9.13;;;6.30;99.90;;;;;;5055204;28;20440;-64
2020/12/27 08:39:07;;;;;;;9.53;9.33;;;6.40;99.90;;;;;;5055075;28;20829;-65
2020/12/27 08:41:39;;;;;;;9.70;9.40;;;6.40;99.90;;;;;;5054935;28;20440;-65
2020/12/27 08:44:31;;;;;;;9.20;9.00;;;6.40;99.90;;;;;;5055024;28;20583;-65
2020/12/27 08:47:03;;;;;;;9.20;8.90;;;6.40;99.90;;;;;;5054947;28;21025;-65
2020/12/27 08:49:40;;;;;;;9.67;9.27;;;6.40;99.90;;;;;;5055143;28;20464;-65
2020/12/27 08:52:13;;;;;;;9.10;8.90;;;6.40;99.90;;;;;;5054733;28;20455;-63
2020/12/27 08:54:40;;;;;;;9.10;8.90;;;6.50;99.90;;;;;;5054769;28;20519;-65
2020/12/27 08:57:07;;;;;;;9.53;9.23;;;6.50;99.90;;;;;;5054803;28;20480;-65
2020/12/27 08:59:34;;;;;;;9.60;9.30;;;6.50;99.90;;;;;;5094420;22;20485;-67
2020/12/27 09:02:08;;;;;;;8.97;8.77;;;6.50;99.90;;;;;;5074463;28;20446;-67
2020/12/27 09:04:35;;;;;;;10.27;9.83;;;6.60;99.90;;;;;;5074916;28;20454;-67
2020/12/27 09:07:02;;;;;;;9.50;9.30;;;6.60;99.90;;;;;;5074068;28;20443;-67
2020/12/27 09:09:29;;;;;;;9.50;9.30;;;6.60;99.90;;;;;;5074169;28;20995;-67
2020/12/27 09:11:55;;;;;;;9.60;9.40;;;6.70;99.90;;;;;;5074056;28;20812;-66
2020/12/27 09:14:36;;;;;;;9.40;9.20;;;6.70;99.90;;;;;;5074468;28;20451;-67
2020/12/27 09:17:06;;;;;;;9.67;9.47;;;6.70;99.90;;;;;;5074309;28;20482;-67
2020/12/27 09:19:35;;;;;;;9.67;9.47;;;6.70;99.90;;;;;;5074185;28;20466;-66
2020/12/27 09:22:04;;;;;;;9.70;9.50;;;6.70;99.90;;;;;;5074212;28;20441;-66
2020/12/27 09:24:32;;;;;;;9.80;9.50;;;6.70;99.90;;;;;;5073468;28;20498;-66
2020/12/27 09:27:09;;;;;;;9.40;9.20;;;6.70;99.90;;;;;;5074140;28;20443;-65
2020/12/27 09:29:37;;;;;;;9.57;9.37;;;6.60;99.90;;;;;;5073898;28;20576;-67
2020/12/27 09:32:11;;;;;;;9.50;9.30;;;6.60;99.90;;;;;;5073855;28;20496;-67
2020/12/27 09:34:38;;;;;;;9.50;9.30;;;6.60;99.90;;;;;;5074039;28;20500;-67
2020/12/27 09:37:14;;;;;;;9.50;9.30;;;6.60;99.90;;;;;;5074077;28;20479;-68
2020/12/27 09:39:41;;;;;;;9.63;9.43;;;6.50;99.90;;;;;;5073818;28;20502;-66
2020/12/27 09:42:07;;;;;;;9.33;9.13;;;6.50;99.90;;;;;;5074130;28;20788;-67
2020/12/27 09:44:34;;;;;;;10.47;10.17;;;6.60;99.90;;;;;;5073466;28;20451;-67
2020/12/27 09:47:02;;;;;;;9.10;8.90;;;6.60;99.90;;;;;;5073309;28;20921;-67
2020/12/27 09:49:31;;;;;;;9.90;9.50;;;6.60;99.90;;;;;;5073829;28;20866;-65
2020/12/27 09:52:04;;;;;;;9.93;9.63;;;6.60;99.90;;;;;;5073858;28;20531;-66
2020/12/27 09:54:31;;;;;;;9.73;9.53;;;6.60;99.90;;;;;;5073792;28;20447;-67
2020/12/27 09:56:59;;;;;;;9.43;9.23;;;6.60;99.90;;;;;;5073519;28;20443;-67
2020/12/27 09:59:25;;;;;;;9.47;9.27;;;6.60;99.90;;;;;;5073575;28;20859;-65
2020/12/27 10:01:51;;;;;;;9.00;8.80;;;6.60;99.90;;;;;;5073202;28;20521;-68
2020/12/27 10:04:18;;;;;;;9.20;9.00;;;6.60;99.90;;;;;;5073631;28;20447;-67
2020/12/27 10:06:45;;;;;;;9.80;9.50;;;6.60;99.90;;;;;;5073381;28;20493;-67
2020/12/27 10:09:11;;;;;;;9.47;9.27;;;6.60;99.90;;;;;;5073135;28;20460;-66
2020/12/27 10:11:37;;;;;;;9.40;9.20;;;6.50;99.90;;;;;;5073244;28;20447;-67
2020/12/27 10:14:03;;;;;;;9.50;9.30;;;6.60;99.90;;;;;;5073406;28;20443;-66
2020/12/27 10:16:29;;;;;;;9.90;9.70;;;6.60;99.90;;;;;;5073338;28;20447;-66
2020/12/27 10:18:56;;;;;;;9.40;9.20;;;6.60;99.90;;;;;;5073170;28;20491;-66
2020/12/27 10:21:23;;;;;;;9.70;9.50;;;6.60;99.90;;;;;;5073022;28;20936;-65
2020/12/27 10:23:49;;;;;;;9.70;9.50;;;6.60;99.90;;;;;;5073185;28;20443;-67
2020/12/27 10:26:15;;;;;;;10.00;9.80;;;6.60;99.90;;;;;;5073213;28;20447;-67
2020/12/27 10:28:41;;;;;;;9.80;9.60;;;6.70;99.90;;;;;;5072972;28;20465;-68
2020/12/27 10:31:11;;;;;;;9.80;9.60;;;6.70;99.90;;;;;;5072916;28;20456;-69
2020/12/27 10:33:37;;;;;;;9.67;9.43;;;6.70;99.90;;;;;;5073261;28;20447;-67
2020/12/27 10:36:04;;;;;;;9.87;9.67;;;6.70;99.90;;;;;;5072114;28;20492;-69
2020/12/27 10:38:31;;;;;;;9.63;9.43;;;6.70;99.90;;;;;;5072836;28;20483;-67
2020/12/27 10:40:57;;;;;;;9.83;9.60;;;6.70;99.90;;;;;;5072615;28;20451;-68
2020/12/27 10:43:23;;;;;;;9.50;9.30;;;6.60;99.90;;;;;;5072839;28;20447;-68
2020/12/27 10:45:57;;;;;;;9.80;9.60;;;6.60;99.90;;;;;;5072883;28;20442;-69
2020/12/27 10:48:23;;;;;;;9.83;9.57;;;6.70;99.90;;;;;;5072578;28;20961;-68
2020/12/27 10:50:49;;;;;;;9.90;9.50;;;6.70;99.90;;;;;;5072387;28;20447;-68
2020/12/27 10:53:16;;;;;;;9.50;9.20;;;6.70;99.90;;;;;;5072713;28;20443;-68
2020/12/27 10:55:47;;;;;;;9.50;9.30;;;6.60;99.90;;;;;;5072575;28;20534;-68
2020/12/27 10:58:13;;;;;;;10.07;9.77;;;6.70;99.90;;;;;;5072211;28;21005;-68
2020/12/27 11:00:39;;;;;;;9.40;9.20;;;6.70;99.90;;;;;;5072263;28;20440;-66
2020/12/27 11:03:06;;;;;;;9.50;9.30;;;6.80;99.90;;;;;;5072352;28;20447;-67
2020/12/27 11:05:32;;;;;;;9.17;8.97;;;6.80;99.90;;;;;;5072454;28;20448;-69
2020/12/27 11:07:58;;;;;;;9.73;9.53;;;6.90;99.90;;;;;;5072256;28;20811;-69
2020/12/27 11:10:25;;;;;;;9.53;9.33;;;6.90;99.90;;;;;;5072009;28;20450;-66
2020/12/27 11:12:52;;;;;;;9.20;9.00;;;6.80;99.90;;;;;;5072440;28;20443;-68
2020/12/27 11:15:18;;;;;;;9.10;8.90;;;6.80;99.90;;;;;;5072084;28;20900;-69
2020/12/27 11:17:44;;;;;;;9.03;8.83;;;6.80;99.90;;;;;;5072067;28;20559;-68
2020/12/27 11:20:13;;;;;;;9.60;9.40;;;6.80;99.90;;;;;;5071654;28;20459;-68
2020/12/27 11:22:40;;;;;;;10.87;10.57;;;6.90;99.90;;;;;;5071907;28;20446;-66
2020/12/27 11:25:12;;;;;;;9.10;8.90;;;6.90;99.90;;;;;;5072092;28;20802;-69
2020/12/27 11:27:38;;;;;;;10.67;9.83;;;6.90;99.90;;;;;;5071940;28;20458;-69
2020/12/27 11:30:06;;;;;;;9.40;9.20;;;6.90;99.90;;;;;;5071126;28;20520;-68
2020/12/27 11:32:32;;;;;;;9.50;9.20;;;6.90;99.90;;;;;;5071901;28;20497;-66
2020/12/27 11:34:58;;;;;;;9.60;9.30;;;6.90;99.90;;;;;;5071780;28;20457;-67
2020/12/27 11:37:24;;;;;;;9.40;9.20;;;7.00;99.90;;;;;;5070596;28;20848;-67
2020/12/27 11:39:51;;;;;;;9.50;9.30;;;7.00;99.90;;;;;;5070366;28;21020;-66
2020/12/27 11:42:17;;;;;;;9.50;9.30;;;7.00;99.90;;;;;;5070356;28;20932;-67
2020/12/27 11:44:43;;;;;;;9.63;9.43;;;7.00;99.90;;;;;;5070632;28;20802;-68
2020/12/27 11:47:10;;;;;;;10.10;9.80;;;7.00;99.90;;;;;;5070290;28;20820;-67
2020/12/27 11:49:36;;;;;;;9.37;9.17;;;7.00;99.90;;;;;;5070262;28;20517;-67
2020/12/27 11:52:03;;;;;;;9.60;9.40;;;7.00;99.90;;;;;;5070748;28;20439;-67
2020/12/27 11:54:29;;;;;;;9.40;9.20;;;7.10;99.90;;;;;;5071397;28;20439;-67
2020/12/27 11:56:56;;;;;;;8.93;8.73;;;7.10;99.90;;;;;;5071247;28;20496;-67
2020/12/27 11:59:22;;;;;;;9.80;9.60;;;7.00;99.90;;;;;;5071195;28;20479;-67
2020/12/27 12:01:48;;;;;;;9.37;9.17;;;7.10;99.90;;;;;;5071016;28;20478;-67
2020/12/27 12:04:15;;;;;;;9.40;9.20;;;7.10;99.90;;;;;;5071146;28;20478;-66
2020/12/27 12:06:42;;;;;;;9.73;9.53;;;7.10;99.90;;;;;;5071334;28;20439;-67
2020/12/27 12:09:08;;;;;;;9.07;8.87;;;7.10;99.90;;;;;;5071244;28;20451;-67
2020/12/27 12:11:35;;;;;;;9.90;9.70;;;7.10;99.90;;;;;;5071023;28;20447;-66
2020/12/27 12:14:01;;;;;;;9.97;9.77;;;7.00;99.90;;;;;;5071109;28;20998;-67
2020/12/27 12:16:29;;;;;;;10.30;10.10;;;7.00;99.90;;;;;;5071421;28;20439;-67
2020/12/27 12:18:55;;;;;;;10.07;9.77;;;6.90;99.90;;;;;;5071229;28;20968;-68
2020/12/27 12:21:23;;;;;;;9.30;9.10;;;6.80;99.90;;;;;;5070924;28;20450;-67
2020/12/27 12:23:49;;;;;;;9.77;9.40;;;6.70;99.90;;;;;;5071023;28;20443;-67
2020/12/27 12:26:18;;;;;;;9.37;9.17;;;6.70;99.90;;;;;;5071113;28;20457;-67
2020/12/27 12:28:44;;;;;;;10.33;9.83;;;6.60;99.90;;;;;;5070943;28;20512;-68
2020/12/27 12:31:11;;;;;;;9.20;9.00;;;6.50;99.90;;;;;;5071035;28;20443;-67
2020/12/27 12:33:37;;;;;;;9.80;9.60;;;6.40;99.90;;;;;;5071033;28;20442;-67
2020/12/27 12:36:04;;;;;;;9.60;9.40;;;6.40;99.90;;;;;;5070929;28;20448;-67
2020/12/27 12:38:31;;;;;;;9.47;9.23;;;6.30;99.90;;;;;;5070890;28;20501;-67
2020/12/27 12:40:57;;;;;;;8.97;8.77;;;6.30;99.90;;;;;;5070711;28;20450;-67
2020/12/27 12:43:24;;;;;;;8.70;8.50;;;6.20;99.90;;;;;;5070806;28;20447;-67
2020/12/27 12:45:50;;;;;;;9.37;9.17;;;6.30;99.90;;;;;;5071030;28;20435;-68
2020/12/27 12:48:16;;;;;;;9.70;9.30;;;6.30;99.90;;;;;;5070767;28;20463;-68
2020/12/27 12:50:42;;;;;;;10.20;9.90;;;6.20;99.90;;;;;;5070743;28;20454;-67
2020/12/27 12:53:09;;;;;;;9.83;9.53;;;6.20;99.90;;;;;;5070838;28;20789;-67
2020/12/27 12:55:36;;;;;;;9.20;9.00;;;6.20;99.90;;;;;;5070744;28;21017;-70
2020/12/27 12:58:02;;;;;;;9.00;8.80;;;6.20;99.90;;;;;;5070392;28;20486;-68